BWN weather

Brunei International Airport
Bandar Seri Begawan, Brunei-Muara District, Brunei

Public forecast

Using degrees Celsius for public forecast. Weather courtesy of forecast.io.

METAR (pilot weather report)

Retrieved 2019/05/24 00:30 UTC (29 minutes ago):

WBSB 240030Z 16004KT 9999 FEW015 FEW016CB BKN300 29/25 Q1012 NOSIG

TAF (pilot weather forecast)

Forecast is more than 12 hours old.

Retrieved 2019/05/23 00:09 UTC (1 day ago):

TAF TAF WBSB 232300Z 2400/2506 22002KT 9999 FEW014 BECMG 2403/2405 32009KT FEW016 FEW017CB PROB40 TEMPO 2405/2407 8000 -SHRA SCT015 FEW016CB